NCAR-RAP Real-Time Weather Data

Output produced by METARs form (23 February 2020  01:43 UTC)
found at http://weather.rap.ucar.edu/surface/
 
KPHL 230054Z 23012KT 10SM CLR 07/M12 A3024 RMK AO2 SLP239 T00721117 $
KPHL 222354Z 23011KT 10SM CLR 07/M12 A3024 RMK AO2 SLP238 T00721122 10106 20072 53005 $
KPHL 222254Z 22010KT 10SM CLR 09/M12 A3022 RMK AO2 SLP231 T00891122 $